sensor_id;sensor_type;location;lat;lon;timestamp;temperature;humidity
40153;DHT22;26371;56.992;23.912;2023-06-14T03:47:25;14.10;99.90
40153;DHT22;26371;56.992;23.912;2023-06-14T03:49:55;14.10;99.90
40153;DHT22;26371;56.992;23.912;2023-06-14T03:57:44;14.50;99.90
40153;DHT22;26371;56.992;23.912;2023-06-14T04:00:17;14.30;99.90
40153;DHT22;26371;56.992;23.912;2023-06-14T04:02:47;14.90;99.90
40153;DHT22;26371;56.992;23.912;2023-06-14T04:12:52;15.30;99.90
40153;DHT22;26371;56.992;23.912;2023-06-14T04:33:15;16.50;99.90
40153;DHT22;26371;56.992;23.912;2023-06-14T04:35:45;16.50;99.90
40153;DHT22;26371;56.992;23.912;2023-06-14T04:38:19;16.60;99.90
40153;DHT22;26371;56.992;23.912;2023-06-14T04:43:24;16.90;99.90
40153;DHT22;26371;56.992;23.912;2023-06-14T04:45:55;17.00;99.90
40153;DHT22;26371;56.992;23.912;2023-06-14T04:48:27;17.00;99.90
40153;DHT22;26371;56.992;23.912;2023-06-14T04:50:59;17.10;99.90
40153;DHT22;26371;56.992;23.912;2023-06-14T04:53:27;17.20;99.90
40153;DHT22;26371;56.992;23.912;2023-06-14T04:55:56;17.20;99.90
40153;DHT22;26371;56.992;23.912;2023-06-14T04:58:25;17.30;99.90
40153;DHT22;26371;56.992;23.912;2023-06-14T05:00:54;17.40;99.90
40153;DHT22;26371;56.992;23.912;2023-06-14T05:03:24;17.40;99.90
40153;DHT22;26371;56.992;23.912;2023-06-14T05:05:54;17.50;99.90
40153;DHT22;26371;56.992;23.912;2023-06-14T05:08:22;17.60;99.70
40153;DHT22;26371;56.992;23.912;2023-06-14T05:10:55;17.80;98.50
40153;DHT22;26371;56.992;23.912;2023-06-14T05:13:24;17.80;98.70
40153;DHT22;26371;56.992;23.912;2023-06-14T05:15:55;17.90;98.90
40153;DHT22;26371;56.992;23.912;2023-06-14T05:18:25;18.00;98.20
40153;DHT22;26371;56.992;23.912;2023-06-14T05:25:55;18.50;99.90
40153;DHT22;26371;56.992;23.912;2023-06-14T05:28:24;18.70;99.90
40153;DHT22;26371;56.992;23.912;2023-06-14T05:33:22;18.90;99.90
40153;DHT22;26371;56.992;23.912;2023-06-14T05:35:51;19.00;99.90
40153;DHT22;26371;56.992;23.912;2023-06-14T05:38:21;19.20;99.90
40153;DHT22;26371;56.992;23.912;2023-06-14T05:40:50;19.30;99.90
40153;DHT22;26371;56.992;23.912;2023-06-14T06:10:41;20.50;99.90
40153;DHT22;26371;56.992;23.912;2023-06-14T06:13:11;20.70;99.90
40153;DHT22;26371;56.992;23.912;2023-06-14T06:15:40;20.70;99.90
40153;DHT22;26371;56.992;23.912;2023-06-14T06:18:08;20.80;99.50
40153;DHT22;26371;56.992;23.912;2023-06-14T06:20:37;20.90;94.00
40153;DHT22;26371;56.992;23.912;2023-06-14T06:23:06;20.90;94.80
40153;DHT22;26371;56.992;23.912;2023-06-14T06:25:35;21.00;94.40
40153;DHT22;26371;56.992;23.912;2023-06-14T06:28:03;21.00;93.10
40153;DHT22;26371;56.992;23.912;2023-06-14T06:30:34;21.10;97.20
40153;DHT22;26371;56.992;23.912;2023-06-14T06:33:03;21.20;97.10
40153;DHT22;26371;56.992;23.912;2023-06-14T06:35:31;21.20;95.20
40153;DHT22;26371;56.992;23.912;2023-06-14T06:38:00;21.30;92.20
40153;DHT22;26371;56.992;23.912;2023-06-14T06:40:29;21.30;88.10
40153;DHT22;26371;56.992;23.912;2023-06-14T06:42:57;21.50;84.90
40153;DHT22;26371;56.992;23.912;2023-06-14T06:45:27;21.50;86.60
40153;DHT22;26371;56.992;23.912;2023-06-14T06:47:57;21.60;86.20
40153;DHT22;26371;56.992;23.912;2023-06-14T06:50:26;21.70;83.90
40153;DHT22;26371;56.992;23.912;2023-06-14T06:52:55;21.80;86.00
40153;DHT22;26371;56.992;23.912;2023-06-14T06:55:24;21.90;85.60
40153;DHT22;26371;56.992;23.912;2023-06-14T07:30:23;22.80;99.90
40153;DHT22;26371;56.992;23.912;2023-06-14T07:32:54;22.90;99.70
40153;DHT22;26371;56.992;23.912;2023-06-14T07:35:22;22.90;98.90
40153;DHT22;26371;56.992;23.912;2023-06-14T07:37:52;22.90;97.80
40153;DHT22;26371;56.992;23.912;2023-06-14T07:40:21;22.90;78.20
40153;DHT22;26371;56.992;23.912;2023-06-14T07:42:50;22.90;78.30
40153;DHT22;26371;56.992;23.912;2023-06-14T07:45:18;22.90;78.80
40153;DHT22;26371;56.992;23.912;2023-06-14T07:47:47;23.10;94.00
40153;DHT22;26371;56.992;23.912;2023-06-14T07:50:16;23.10;95.00
40153;DHT22;26371;56.992;23.912;2023-06-14T07:52:44;23.10;95.30
40153;DHT22;26371;56.992;23.912;2023-06-14T07:55:15;23.20;94.50
40153;DHT22;26371;56.992;23.912;2023-06-14T07:57:45;23.20;95.10
40153;DHT22;26371;56.992;23.912;2023-06-14T08:00:14;23.30;95.30
40153;DHT22;26371;56.992;23.912;2023-06-14T08:02:45;23.20;76.10
40153;DHT22;26371;56.992;23.912;2023-06-14T08:05:14;23.20;75.20
40153;DHT22;26371;56.992;23.912;2023-06-14T08:07:44;23.20;75.50
40153;DHT22;26371;56.992;23.912;2023-06-14T08:10:13;23.30;75.50
40153;DHT22;26371;56.992;23.912;2023-06-14T08:12:43;23.30;76.60
40153;DHT22;26371;56.992;23.912;2023-06-14T08:15:12;23.50;77.90
40153;DHT22;26371;56.992;23.912;2023-06-14T08:17:42;23.50;77.00
40153;DHT22;26371;56.992;23.912;2023-06-14T08:20:14;23.70;95.00
40153;DHT22;26371;56.992;23.912;2023-06-14T08:25:15;22.50;75.80
40153;DHT22;26371;56.992;23.912;2023-06-14T08:32:46;24.20;75.20
40153;DHT22;26371;56.992;23.912;2023-06-14T08:35:24;24.20;76.10
40153;DHT22;26371;56.992;23.912;2023-06-14T08:37:53;24.30;75.70
40153;DHT22;26371;56.992;23.912;2023-06-14T08:40:23;24.30;76.40
40153;DHT22;26371;56.992;23.912;2023-06-14T08:42:54;24.30;74.10
40153;DHT22;26371;56.992;23.912;2023-06-14T08:45:24;24.30;72.60
40153;DHT22;26371;56.992;23.912;2023-06-14T08:47:56;24.10;82.40
40153;DHT22;26371;56.992;23.912;2023-06-14T08:50:30;24.00;82.90
40153;DHT22;26371;56.992;23.912;2023-06-14T08:53:02;23.80;82.30
40153;DHT22;26371;56.992;23.912;2023-06-14T08:55:32;23.70;83.90
40153;DHT22;26371;56.992;23.912;2023-06-14T08:58:06;23.80;82.20
40153;DHT22;26371;56.992;23.912;2023-06-14T09:00:36;23.80;80.90
40153;DHT22;26371;56.992;23.912;2023-06-14T09:03:06;23.70;81.00
40153;DHT22;26371;56.992;23.912;2023-06-14T09:05:40;23.60;82.10
40153;DHT22;26371;56.992;23.912;2023-06-14T09:08:09;23.60;81.10
40153;DHT22;26371;56.992;23.912;2023-06-14T09:10:40;23.50;80.00
40153;DHT22;26371;56.992;23.912;2023-06-14T09:13:11;23.50;80.10
40153;DHT22;26371;56.992;23.912;2023-06-14T09:15:40;23.70;81.70
40153;DHT22;26371;56.992;23.912;2023-06-14T09:18:09;23.60;82.40
40153;DHT22;26371;56.992;23.912;2023-06-14T09:20:37;23.60;84.70
40153;DHT22;26371;56.992;23.912;2023-06-14T09:23:06;23.50;81.90
40153;DHT22;26371;56.992;23.912;2023-06-14T09:25:41;23.40;83.40
40153;DHT22;26371;56.992;23.912;2023-06-14T09:28:12;23.40;84.40
40153;DHT22;26371;56.992;23.912;2023-06-14T09:30:40;23.40;83.80
40153;DHT22;26371;56.992;23.912;2023-06-14T09:33:09;23.40;86.00
40153;DHT22;26371;56.992;23.912;2023-06-14T09:35:38;23.20;86.90
40153;DHT22;26371;56.992;23.912;2023-06-14T09:38:06;23.20;87.00
40153;DHT22;26371;56.992;23.912;2023-06-14T09:40:40;23.20;87.20
40153;DHT22;26371;56.992;23.912;2023-06-14T09:43:08;23.10;90.20
40153;DHT22;26371;56.992;23.912;2023-06-14T09:45:40;22.90;90.00
40153;DHT22;26371;56.992;23.912;2023-06-14T09:48:12;22.80;89.70
40153;DHT22;26371;56.992;23.912;2023-06-14T09:50:46;22.80;90.40
40153;DHT22;26371;56.992;23.912;2023-06-14T09:53:16;23.00;91.20
40153;DHT22;26371;56.992;23.912;2023-06-14T09:55:49;23.10;91.50
40153;DHT22;26371;56.992;23.912;2023-06-14T09:58:20;23.10;91.20
40153;DHT22;26371;56.992;23.912;2023-06-14T10:00:53;23.20;91.50
40153;DHT22;26371;56.992;23.912;2023-06-14T10:03:27;23.00;90.80
40153;DHT22;26371;56.992;23.912;2023-06-14T10:06:10;23.00;90.90
40153;DHT22;26371;56.992;23.912;2023-06-14T10:08:39;23.30;91.30
40153;DHT22;26371;56.992;23.912;2023-06-14T10:11:08;23.40;90.80
40153;DHT22;26371;56.992;23.912;2023-06-14T10:13:37;23.30;90.50
40153;DHT22;26371;56.992;23.912;2023-06-14T10:16:12;23.00;89.90
40153;DHT22;26371;56.992;23.912;2023-06-14T10:18:48;23.10;89.30
40153;DHT22;26371;56.992;23.912;2023-06-14T10:21:23;23.20;90.60
40153;DHT22;26371;56.992;23.912;2023-06-14T10:23:56;23.00;91.80
40153;DHT22;26371;56.992;23.912;2023-06-14T10:26:28;23.00;90.50
40153;DHT22;26371;56.992;23.912;2023-06-14T10:28:59;23.00;90.90
40153;DHT22;26371;56.992;23.912;2023-06-14T10:31:42;23.00;91.70
40153;DHT22;26371;56.992;23.912;2023-06-14T10:34:11;23.10;89.10
40153;DHT22;26371;56.992;23.912;2023-06-14T10:36:42;23.00;90.20
40153;DHT22;26371;56.992;23.912;2023-06-14T10:39:15;22.80;91.50
40153;DHT22;26371;56.992;23.912;2023-06-14T10:41:51;22.70;92.70
40153;DHT22;26371;56.992;23.912;2023-06-14T10:44:40;22.70;93.40
40153;DHT22;26371;56.992;23.912;2023-06-14T10:47:11;22.80;93.10
40153;DHT22;26371;56.992;23.912;2023-06-14T10:49:51;23.00;93.60
40153;DHT22;26371;56.992;23.912;2023-06-14T10:52:25;22.80;93.90
40153;DHT22;26371;56.992;23.912;2023-06-14T10:55:10;22.70;94.50
40153;DHT22;26371;56.992;23.912;2023-06-14T10:57:44;22.60;94.30
40153;DHT22;26371;56.992;23.912;2023-06-14T11:00:20;22.60;94.40
40153;DHT22;26371;56.992;23.912;2023-06-14T11:03:12;22.60;94.80
40153;DHT22;26371;56.992;23.912;2023-06-14T11:05:50;22.50;92.50
40153;DHT22;26371;56.992;23.912;2023-06-14T11:08:53;22.50;93.20
40153;DHT22;26371;56.992;23.912;2023-06-14T11:11:30;22.50;94.30
40153;DHT22;26371;56.992;23.912;2023-06-14T11:14:00;22.60;94.50
40153;DHT22;26371;56.992;23.912;2023-06-14T11:16:30;22.70;94.60
40153;DHT22;26371;56.992;23.912;2023-06-14T11:19:02;22.80;94.80
40153;DHT22;26371;56.992;23.912;2023-06-14T11:21:32;22.60;95.10
40153;DHT22;26371;56.992;23.912;2023-06-14T11:24:01;22.70;95.30
40153;DHT22;26371;56.992;23.912;2023-06-14T11:26:30;22.80;94.70
40153;DHT22;26371;56.992;23.912;2023-06-14T11:29:01;23.00;94.70
40153;DHT22;26371;56.992;23.912;2023-06-14T11:31:30;23.00;93.80
40153;DHT22;26371;56.992;23.912;2023-06-14T11:34:00;22.90;94.10
40153;DHT22;26371;56.992;23.912;2023-06-14T11:36:31;22.80;94.10
40153;DHT22;26371;56.992;23.912;2023-06-14T11:39:00;22.60;94.20
40153;DHT22;26371;56.992;23.912;2023-06-14T11:41:35;22.40;94.40
40153;DHT22;26371;56.992;23.912;2023-06-14T11:44:06;22.40;94.00
40153;DHT22;26371;56.992;23.912;2023-06-14T11:46:35;22.40;93.30
40153;DHT22;26371;56.992;23.912;2023-06-14T11:49:04;22.30;92.50
40153;DHT22;26371;56.992;23.912;2023-06-14T11:51:36;22.10;92.30
40153;DHT22;26371;56.992;23.912;2023-06-14T11:54:06;22.00;92.60
40153;DHT22;26371;56.992;23.912;2023-06-14T11:56:36;21.80;92.80
40153;DHT22;26371;56.992;23.912;2023-06-14T11:59:05;21.50;93.30
40153;DHT22;26371;56.992;23.912;2023-06-14T12:01:36;21.50;93.40
40153;DHT22;26371;56.992;23.912;2023-06-14T12:04:10;21.40;92.80
40153;DHT22;26371;56.992;23.912;2023-06-14T12:06:40;21.30;93.00
40153;DHT22;26371;56.992;23.912;2023-06-14T12:09:09;21.30;92.90
40153;DHT22;26371;56.992;23.912;2023-06-14T12:11:45;21.30;93.30
40153;DHT22;26371;56.992;23.912;2023-06-14T12:14:14;21.20;93.90
40153;DHT22;26371;56.992;23.912;2023-06-14T12:16:43;21.10;94.50
40153;DHT22;26371;56.992;23.912;2023-06-14T12:19:13;21.20;94.80
40153;DHT22;26371;56.992;23.912;2023-06-14T12:21:46;21.20;94.70
40153;DHT22;26371;56.992;23.912;2023-06-14T12:24:16;21.20;94.20
40153;DHT22;26371;56.992;23.912;2023-06-14T12:26:45;21.20;93.70
40153;DHT22;26371;56.992;23.912;2023-06-14T12:29:14;21.20;93.70
40153;DHT22;26371;56.992;23.912;2023-06-14T12:31:43;21.20;93.10
40153;DHT22;26371;56.992;23.912;2023-06-14T12:34:11;21.20;93.20
40153;DHT22;26371;56.992;23.912;2023-06-14T12:36:40;21.10;93.50
40153;DHT22;26371;56.992;23.912;2023-06-14T12:39:13;21.10;93.60
40153;DHT22;26371;56.992;23.912;2023-06-14T12:41:42;21.20;93.30
40153;DHT22;26371;56.992;23.912;2023-06-14T12:44:11;21.30;93.50
40153;DHT22;26371;56.992;23.912;2023-06-14T12:46:41;21.50;93.50
40153;DHT22;26371;56.992;23.912;2023-06-14T12:49:11;21.50;93.40
40153;DHT22;26371;56.992;23.912;2023-06-14T12:51:40;21.50;93.80
40153;DHT22;26371;56.992;23.912;2023-06-14T12:54:09;21.50;94.00
40153;DHT22;26371;56.992;23.912;2023-06-14T12:56:39;21.40;94.50
40153;DHT22;26371;56.992;23.912;2023-06-14T12:59:09;21.20;94.50
40153;DHT22;26371;56.992;23.912;2023-06-14T13:01:38;21.00;94.50
40153;DHT22;26371;56.992;23.912;2023-06-14T13:04:07;21.00;94.70
40153;DHT22;26371;56.992;23.912;2023-06-14T13:06:37;21.10;94.70
40153;DHT22;26371;56.992;23.912;2023-06-14T13:09:06;21.10;94.80
40153;DHT22;26371;56.992;23.912;2023-06-14T13:11:35;21.20;95.00
40153;DHT22;26371;56.992;23.912;2023-06-14T13:14:05;21.20;94.60
40153;DHT22;26371;56.992;23.912;2023-06-14T13:16:52;21.20;94.90
40153;DHT22;26371;56.992;23.912;2023-06-14T13:19:21;21.20;94.90
40153;DHT22;26371;56.992;23.912;2023-06-14T13:21:49;21.30;94.80
40153;DHT22;26371;56.992;23.912;2023-06-14T13:24:18;21.50;94.60
40153;DHT22;26371;56.992;23.912;2023-06-14T13:26:47;21.60;94.50
40153;DHT22;26371;56.992;23.912;2023-06-14T13:29:17;21.70;94.60
40153;DHT22;26371;56.992;23.912;2023-06-14T13:31:45;21.80;94.90
40153;DHT22;26371;56.992;23.912;2023-06-14T13:34:14;21.90;94.70
40153;DHT22;26371;56.992;23.912;2023-06-14T13:36:44;21.80;94.90
40153;DHT22;26371;56.992;23.912;2023-06-14T13:39:12;21.70;94.90
40153;DHT22;26371;56.992;23.912;2023-06-14T13:41:41;21.70;95.10
40153;DHT22;26371;56.992;23.912;2023-06-14T13:44:09;21.70;94.70
40153;DHT22;26371;56.992;23.912;2023-06-14T13:46:44;21.50;95.00
40153;DHT22;26371;56.992;23.912;2023-06-14T13:51:43;21.10;95.70
40153;DHT22;26371;56.992;23.912;2023-06-14T13:54:13;21.10;95.70
40153;DHT22;26371;56.992;23.912;2023-06-14T13:56:42;21.10;96.20
40153;DHT22;26371;56.992;23.912;2023-06-14T13:59:11;21.20;96.50
40153;DHT22;26371;56.992;23.912;2023-06-14T14:01:40;21.20;96.60
40153;DHT22;26371;56.992;23.912;2023-06-14T14:04:11;21.20;96.30
40153;DHT22;26371;56.992;23.912;2023-06-14T14:06:40;21.10;96.80
40153;DHT22;26371;56.992;23.912;2023-06-14T14:51:24;21.60;99.90
40153;DHT22;26371;56.992;23.912;2023-06-14T14:53:52;21.50;99.90
40153;DHT22;26371;56.992;23.912;2023-06-14T14:56:22;21.90;99.90
40153;DHT22;26371;56.992;23.912;2023-06-14T14:58:50;21.90;94.60
40153;DHT22;26371;56.992;23.912;2023-06-14T15:01:19;22.10;94.30
40153;DHT22;26371;56.992;23.912;2023-06-14T15:03:48;22.40;94.10
40153;DHT22;26371;56.992;23.912;2023-06-14T15:06:27;22.30;94.10
40153;DHT22;26371;56.992;23.912;2023-06-14T15:08:55;22.20;94.10
40153;DHT22;26371;56.992;23.912;2023-06-14T15:11:24;22.20;93.80
40153;DHT22;26371;56.992;23.912;2023-06-14T15:13:53;22.10;93.80
40153;DHT22;26371;56.992;23.912;2023-06-14T15:16:24;21.90;94.10
40153;DHT22;26371;56.992;23.912;2023-06-14T15:18:52;22.00;94.50
40153;DHT22;26371;56.992;23.912;2023-06-14T15:21:20;22.00;94.00
40153;DHT22;26371;56.992;23.912;2023-06-14T15:23:50;22.00;93.50
40153;DHT22;26371;56.992;23.912;2023-06-14T15:26:20;21.90;93.30
40153;DHT22;26371;56.992;23.912;2023-06-14T15:28:50;21.80;93.50
40153;DHT22;26371;56.992;23.912;2023-06-14T15:31:19;21.80;93.40
40153;DHT22;26371;56.992;23.912;2023-06-14T15:51:13;21.90;99.90
40153;DHT22;26371;56.992;23.912;2023-06-14T15:53:42;21.90;99.90
40153;DHT22;26371;56.992;23.912;2023-06-14T15:56:10;21.90;99.90
40153;DHT22;26371;56.992;23.912;2023-06-14T16:35:57;20.60;99.90
40153;DHT22;26371;56.992;23.912;2023-06-14T16:38:25;20.60;99.90
40153;DHT22;26371;56.992;23.912;2023-06-14T16:40:54;20.50;99.90
40153;DHT22;26371;56.992;23.912;2023-06-14T16:43:26;20.50;99.90
40153;DHT22;26371;56.992;23.912;2023-06-14T16:45:59;20.50;99.90
40153;DHT22;26371;56.992;23.912;2023-06-14T16:48:27;20.50;99.90
40153;DHT22;26371;56.992;23.912;2023-06-14T16:50:57;20.50;99.90
40153;DHT22;26371;56.992;23.912;2023-06-14T16:53:26;20.40;99.90
40153;DHT22;26371;56.992;23.912;2023-06-14T16:55:55;20.20;99.90
40153;DHT22;26371;56.992;23.912;2023-06-14T16:58:23;20.30;99.90
40153;DHT22;26371;56.992;23.912;2023-06-14T17:00:51;20.00;99.90
40153;DHT22;26371;56.992;23.912;2023-06-14T17:03:20;19.90;99.90
40153;DHT22;26371;56.992;23.912;2023-06-14T17:05:59;19.90;99.90
40153;DHT22;26371;56.992;23.912;2023-06-14T17:08:30;19.80;99.90
40153;DHT22;26371;56.992;23.912;2023-06-14T17:10:59;19.80;99.90
40153;DHT22;26371;56.992;23.912;2023-06-14T17:13:27;19.80;99.90
40153;DHT22;26371;56.992;23.912;2023-06-14T17:15:56;19.90;99.90
40153;DHT22;26371;56.992;23.912;2023-06-14T17:18:24;19.90;99.90
40153;DHT22;26371;56.992;23.912;2023-06-14T17:20:53;19.90;99.90
40153;DHT22;26371;56.992;23.912;2023-06-14T17:23:23;19.90;99.90
40153;DHT22;26371;56.992;23.912;2023-06-14T17:25:51;19.90;99.90
40153;DHT22;26371;56.992;23.912;2023-06-14T17:28:20;19.90;99.90
40153;DHT22;26371;56.992;23.912;2023-06-14T19:10:13;18.80;99.90
40153;DHT22;26371;56.992;23.912;2023-06-14T19:12:42;18.70;99.90
40153;DHT22;26371;56.992;23.912;2023-06-14T19:15:10;18.70;99.90
40153;DHT22;26371;56.992;23.912;2023-06-14T19:17:38;18.60;99.90
40153;DHT22;26371;56.992;23.912;2023-06-14T19:20:07;18.60;99.90
40153;DHT22;26371;56.992;23.912;2023-06-14T19:22:36;18.60;99.90
40153;DHT22;26371;56.992;23.912;2023-06-14T19:25:04;18.60;99.90
40153;DHT22;26371;56.992;23.912;2023-06-14T19:27:34;18.50;99.90
40153;DHT22;26371;56.992;23.912;2023-06-14T19:30:03;18.50;99.90
40153;DHT22;26371;56.992;23.912;2023-06-14T19:32:32;18.50;99.90
40153;DHT22;26371;56.992;23.912;2023-06-14T19:35:02;18.50;99.90
40153;DHT22;26371;56.992;23.912;2023-06-14T19:37:31;18.50;99.90
40153;DHT22;26371;56.992;23.912;2023-06-14T19:39:59;18.50;99.90
40153;DHT22;26371;56.992;23.912;2023-06-14T19:42:28;18.40;99.90
40153;DHT22;26371;56.992;23.912;2023-06-14T19:44:57;18.40;99.90
40153;DHT22;26371;56.992;23.912;2023-06-14T19:47:29;18.30;99.90
40153;DHT22;26371;56.992;23.912;2023-06-14T20:22:24;18.10;99.90
40153;DHT22;26371;56.992;23.912;2023-06-14T20:24:52;18.00;99.90
40153;DHT22;26371;56.992;23.912;2023-06-14T20:27:21;18.00;99.90
40153;DHT22;26371;56.992;23.912;2023-06-14T21:54:31;17.00;99.90
40153;DHT22;26371;56.992;23.912;2023-06-14T21:56:59;16.90;99.90
40153;DHT22;26371;56.992;23.912;2023-06-14T21:59:27;16.80;99.90
40153;DHT22;26371;56.992;23.912;2023-06-14T22:01:56;16.70;99.90
40153;DHT22;26371;56.992;23.912;2023-06-14T22:04:24;16.60;99.90
40153;DHT22;26371;56.992;23.912;2023-06-14T22:06:53;16.60;99.90
40153;DHT22;26371;56.992;23.912;2023-06-14T22:09:23;16.60;99.90
40153;DHT22;26371;56.992;23.912;2023-06-14T22:11:54;16.60;99.90
40153;DHT22;26371;56.992;23.912;2023-06-14T22:14:23;16.60;99.90
40153;DHT22;26371;56.992;23.912;2023-06-14T22:16:51;16.60;99.90
40153;DHT22;26371;56.992;23.912;2023-06-14T22:19:19;16.60;99.90
40153;DHT22;26371;56.992;23.912;2023-06-14T22:21:48;16.50;99.90
40153;DHT22;26371;56.992;23.912;2023-06-14T22:24:18;16.50;99.90
40153;DHT22;26371;56.992;23.912;2023-06-14T22:26:46;16.40;99.90
40153;DHT22;26371;56.992;23.912;2023-06-14T22:29:16;16.40;99.90
40153;DHT22;26371;56.992;23.912;2023-06-14T22:31:47;16.40;99.90
40153;DHT22;26371;56.992;23.912;2023-06-14T22:34:15;16.30;99.90
40153;DHT22;26371;56.992;23.912;2023-06-14T22:36:44;16.30;99.90
40153;DHT22;26371;56.992;23.912;2023-06-14T22:39:14;16.30;99.90
40153;DHT22;26371;56.992;23.912;2023-06-14T22:41:43;16.20;99.90
40153;DHT22;26371;56.992;23.912;2023-06-14T22:44:16;16.10;99.90
40153;DHT22;26371;56.992;23.912;2023-06-14T22:46:45;16.00;99.90
40153;DHT22;26371;56.992;23.912;2023-06-14T22:49:13;16.00;99.90
40153;DHT22;26371;56.992;23.912;2023-06-14T22:51:44;15.90;99.90
40153;DHT22;26371;56.992;23.912;2023-06-14T22:54:12;15.80;99.90
40153;DHT22;26371;56.992;23.912;2023-06-14T22:56:40;15.80;99.90
40153;DHT22;26371;56.992;23.912;2023-06-14T22:59:09;15.80;99.90
40153;DHT22;26371;56.992;23.912;2023-06-14T23:01:39;15.70;99.90
40153;DHT22;26371;56.992;23.912;2023-06-14T23:04:08;15.70;99.90
40153;DHT22;26371;56.992;23.912;2023-06-14T23:06:36;15.60;99.90
40153;DHT22;26371;56.992;23.912;2023-06-14T23:09:05;15.60;99.90
40153;DHT22;26371;56.992;23.912;2023-06-14T23:11:33;15.60;99.90
40153;DHT22;26371;56.992;23.912;2023-06-14T23:14:02;15.60;99.90
40153;DHT22;26371;56.992;23.912;2023-06-14T23:16:31;15.50;99.90
40153;DHT22;26371;56.992;23.912;2023-06-14T23:19:02;15.50;99.90
40153;DHT22;26371;56.992;23.912;2023-06-14T23:21:30;15.40;99.90
40153;DHT22;26371;56.992;23.912;2023-06-14T23:23:59;15.40;99.90
40153;DHT22;26371;56.992;23.912;2023-06-14T23:26:29;15.40;99.90
40153;DHT22;26371;56.992;23.912;2023-06-14T23:28:58;15.30;99.90
40153;DHT22;26371;56.992;23.912;2023-06-14T23:31:29;15.30;99.90
40153;DHT22;26371;56.992;23.912;2023-06-14T23:33:57;15.30;99.90
40153;DHT22;26371;56.992;23.912;2023-06-14T23:36:27;15.30;99.90
40153;DHT22;26371;56.992;23.912;2023-06-14T23:38:58;15.30;99.90
40153;DHT22;26371;56.992;23.912;2023-06-14T23:41:27;15.30;99.90
40153;DHT22;26371;56.992;23.912;2023-06-14T23:43:58;15.20;99.90
40153;DHT22;26371;56.992;23.912;2023-06-14T23:46:27;15.20;99.90
40153;DHT22;26371;56.992;23.912;2023-06-14T23:48:56;15.10;99.90
40153;DHT22;26371;56.992;23.912;2023-06-14T23:51:25;15.20;99.90
40153;DHT22;26371;56.992;23.912;2023-06-14T23:53:54;15.20;99.90
40153;DHT22;26371;56.992;23.912;2023-06-14T23:56:26;15.20;99.90
40153;DHT22;26371;56.992;23.912;2023-06-14T23:58:58;15.20;99.90
